createdAt,value
2023-01-12T00:02:09.115Z,8.50
2023-01-12T00:04:36.599Z,7.20
2023-01-12T00:07:04.150Z,7.30
2023-01-12T00:09:31.296Z,6.47
2023-01-12T00:11:58.455Z,6.73
2023-01-12T00:14:25.614Z,6.83
2023-01-12T00:16:52.699Z,6.13
2023-01-12T00:19:20.578Z,6.17
2023-01-12T00:22:03.686Z,5.83
2023-01-12T00:24:40.605Z,6.10
2023-01-12T00:27:08.638Z,6.03
2023-01-12T00:29:35.979Z,6.97
2023-01-12T00:32:03.164Z,6.07
2023-01-12T00:34:30.327Z,6.00
2023-01-12T00:36:57.598Z,6.17
2023-01-12T00:39:24.752Z,5.77
2023-01-12T00:42:10.349Z,5.53
2023-01-12T00:44:56.363Z,5.90
2023-01-12T00:47:23.463Z,6.80
2023-01-12T00:49:50.674Z,6.90
2023-01-12T00:52:30.045Z,6.03
2023-01-12T00:54:58.308Z,4.70
2023-01-12T00:57:25.475Z,5.17
2023-01-12T00:59:55.537Z,4.83
2023-01-12T01:02:23.068Z,5.07
2023-01-12T01:04:50.560Z,5.10
2023-01-12T01:07:18.426Z,5.10
2023-01-12T01:09:45.638Z,4.80
2023-01-12T01:12:12.778Z,4.87
2023-01-12T01:14:39.885Z,4.77
2023-01-12T01:17:07.040Z,4.30
2023-01-12T01:19:34.208Z,4.45
2023-01-12T01:22:01.332Z,4.67
2023-01-12T01:24:28.471Z,4.70
2023-01-12T01:26:55.636Z,4.17
2023-01-12T01:29:22.787Z,4.37
2023-01-12T01:31:49.947Z,4.17
2023-01-12T01:34:17.264Z,5.70
2023-01-12T01:36:44.354Z,3.97
2023-01-12T01:39:11.470Z,4.07
2023-01-12T01:41:38.592Z,4.15
2023-01-12T01:44:06.688Z,4.23
2023-01-12T01:46:44.869Z,3.63
2023-01-12T01:49:22.787Z,3.78
2023-01-12T01:51:49.944Z,3.55
2023-01-12T01:54:17.055Z,4.17
2023-01-12T01:56:44.235Z,3.95
2023-01-12T01:59:13.347Z,3.85
2023-01-12T02:01:40.542Z,3.73
2023-01-12T02:04:07.708Z,5.70
2023-01-12T02:06:34.893Z,4.15
2023-01-12T02:09:03.303Z,4.28
2023-01-12T02:11:48.874Z,3.60
2023-01-12T02:14:34.710Z,3.40
2023-01-12T02:17:01.831Z,3.43
2023-01-12T02:19:38.041Z,3.50
2023-01-12T02:22:28.195Z,3.27
2023-01-12T02:24:58.485Z,2.85
2023-01-12T02:27:29.971Z,3.40
2023-01-12T02:30:26.519Z,3.70
2023-01-12T02:33:08.701Z,3.25
2023-01-12T02:35:38.702Z,3.23
2023-01-12T02:38:11.151Z,3.73
2023-01-12T02:40:38.241Z,3.50
2023-01-12T02:43:15.432Z,4.65
2023-01-12T02:45:48.790Z,3.30
2023-01-12T02:48:23.432Z,3.92
2023-01-12T02:50:52.081Z,3.30
2023-01-12T02:53:21.600Z,3.57
2023-01-12T02:55:48.771Z,3.45
2023-01-12T02:58:16.467Z,3.20
2023-01-12T03:00:43.676Z,3.57
2023-01-12T03:03:12.104Z,3.67
2023-01-12T03:05:42.346Z,3.80
2023-01-12T03:08:10.247Z,5.70
2023-01-12T03:10:37.399Z,3.27
2023-01-12T03:13:07.517Z,3.10
2023-01-12T03:15:35.131Z,3.30
2023-01-12T03:18:04.525Z,3.40
2023-01-12T03:20:32.327Z,2.65
2023-01-12T03:23:01.253Z,2.67
2023-01-12T03:25:28.428Z,2.80
2023-01-12T03:27:56.064Z,2.57
2023-01-12T03:30:36.420Z,2.80
2023-01-12T03:33:06.674Z,2.70
2023-01-12T03:35:36.076Z,3.80
2023-01-12T03:38:23.462Z,4.22
2023-01-12T03:40:51.345Z,16.30
2023-01-12T03:43:19.114Z,17.30
2023-01-12T03:45:57.007Z,18.08
2023-01-12T03:48:26.305Z,20.98
2023-01-12T03:50:58.197Z,12.67
2023-01-12T03:53:25.609Z,8.15
2023-01-12T03:55:55.101Z,7.80
2023-01-12T03:58:22.566Z,5.15
2023-01-12T04:00:49.788Z,3.97
2023-01-12T04:03:17.085Z,6.03
2023-01-12T04:05:44.668Z,3.17
2023-01-12T04:08:12.528Z,3.05
2023-01-12T04:10:39.654Z,3.10
2023-01-12T04:13:06.773Z,4.70
2023-01-12T04:15:37.951Z,3.67
2023-01-12T04:18:05.500Z,3.38
2023-01-12T04:20:33.056Z,6.17
2023-01-12T04:23:00.216Z,4.47
2023-01-12T04:25:27.400Z,3.50
2023-01-12T04:28:04.570Z,4.25
2023-01-12T04:30:32.237Z,3.80
2023-01-12T04:32:59.430Z,3.20
2023-01-12T04:35:26.651Z,3.60
2023-01-12T04:37:53.765Z,3.50
2023-01-12T04:40:20.992Z,2.42
2023-01-12T04:43:01.018Z,2.55
2023-01-12T04:45:35.214Z,3.20
2023-01-12T04:48:06.399Z,2.95
2023-01-12T04:50:33.501Z,2.45
2023-01-12T04:53:02.680Z,2.50
2023-01-12T04:55:29.978Z,2.80
2023-01-12T04:57:57.459Z,2.63
2023-01-12T05:00:24.610Z,2.65
2023-01-12T05:02:53.662Z,3.55
2023-01-12T05:05:20.772Z,4.22
2023-01-12T05:08:06.558Z,9.98
2023-01-12T05:10:33.679Z,6.68
2023-01-12T05:13:00.769Z,4.22
2023-01-12T05:15:27.930Z,4.65
2023-01-12T05:17:55.097Z,6.70
2023-01-12T05:20:22.216Z,6.95
2023-01-12T05:22:51.376Z,10.57
2023-01-12T05:25:18.539Z,6.85
2023-01-12T05:27:45.685Z,5.88
2023-01-12T05:30:12.922Z,5.75
2023-01-12T05:32:41.304Z,4.20
2023-01-12T05:35:08.715Z,4.65
2023-01-12T05:37:35.895Z,3.80
2023-01-12T05:40:02.992Z,3.63
2023-01-12T05:42:48.748Z,3.53
2023-01-12T05:45:15.875Z,4.47
2023-01-12T05:47:42.978Z,5.88
2023-01-12T05:50:10.375Z,8.85
2023-01-12T05:52:37.506Z,7.03
2023-01-12T05:55:05.095Z,6.47
2023-01-12T05:57:32.372Z,5.55
2023-01-12T05:59:59.474Z,5.28
2023-01-12T06:02:26.619Z,4.85
2023-01-12T06:04:53.950Z,3.87
2023-01-12T06:07:21.065Z,4.15
2023-01-12T06:09:48.155Z,4.90
2023-01-12T06:12:34.088Z,4.82
2023-01-12T06:15:01.249Z,3.40
2023-01-12T06:17:28.363Z,3.55
2023-01-12T06:19:55.488Z,4.60
2023-01-12T06:22:22.657Z,5.43
2023-01-12T06:24:49.767Z,7.80
2023-01-12T06:27:17.189Z,6.05
2023-01-12T06:29:44.291Z,4.32
2023-01-12T06:32:11.384Z,4.65
2023-01-12T06:34:38.555Z,6.25
2023-01-12T06:37:07.243Z,8.25
2023-01-12T06:39:34.738Z,6.88
2023-01-12T06:42:20.662Z,9.80
2023-01-12T06:44:48.954Z,6.93
2023-01-12T06:47:16.167Z,7.10
2023-01-12T06:49:43.293Z,6.20
2023-01-12T06:52:10.418Z,5.63
2023-01-12T06:54:37.531Z,3.80
2023-01-12T06:57:04.665Z,3.40
2023-01-12T06:59:31.827Z,3.85
2023-01-12T07:01:59.044Z,4.45
2023-01-12T07:04:26.252Z,4.30
2023-01-12T07:06:56.213Z,5.03
2023-01-12T07:09:23.310Z,6.57
2023-01-12T07:11:50.441Z,4.70
2023-01-12T07:14:17.531Z,7.55
2023-01-12T07:16:44.619Z,7.97
2023-01-12T07:19:11.752Z,7.27
2023-01-12T07:21:38.874Z,23.65
2023-01-12T07:24:06.087Z,29.77
2023-01-12T07:26:33.215Z,26.30
2023-01-12T07:29:00.338Z,23.17
2023-01-12T07:31:27.606Z,24.40
2023-01-12T07:33:54.797Z,21.60
2023-01-12T07:36:22.203Z,21.27
2023-01-12T07:38:49.304Z,25.33
2023-01-12T07:41:34.917Z,29.77
2023-01-12T07:44:02.083Z,25.83
2023-01-12T07:46:29.258Z,26.33
2023-01-12T07:48:56.459Z,27.98
2023-01-12T07:51:23.574Z,27.30
2023-01-12T07:53:50.722Z,24.48
2023-01-12T07:56:19.199Z,27.13
2023-01-12T07:58:49.674Z,27.83
2023-01-12T08:01:17.038Z,27.60
2023-01-12T08:03:44.245Z,26.13
2023-01-12T08:06:11.401Z,27.30
2023-01-12T08:08:38.545Z,27.13
2023-01-12T08:11:06.353Z,28.48
2023-01-12T08:13:33.824Z,29.95
2023-01-12T08:16:04.726Z,32.73
2023-01-12T08:18:33.162Z,31.97
2023-01-12T08:21:00.700Z,36.57
2023-01-12T08:23:28.979Z,45.47
2023-01-12T08:25:57.181Z,54.20
2023-01-12T08:28:25.858Z,55.53
2023-01-12T08:30:52.940Z,51.60
2023-01-12T08:33:20.066Z,51.50
2023-01-12T08:35:47.212Z,53.50
2023-01-12T08:38:14.324Z,298.97
2023-01-12T08:41:00.021Z,296.20
2023-01-12T08:43:45.970Z,159.07
2023-01-12T08:46:13.240Z,65.00
2023-01-12T08:48:40.414Z,31.23
2023-01-12T08:51:08.032Z,20.30
2023-01-12T08:53:35.593Z,23.03
2023-01-12T08:56:02.896Z,23.77
2023-01-12T08:58:30.030Z,12.40
2023-01-12T09:00:57.391Z,16.73
2023-01-12T09:03:24.581Z,14.67
2023-01-12T09:05:51.703Z,22.05
2023-01-12T09:08:18.935Z,19.23
2023-01-12T09:10:46.040Z,25.02
2023-01-12T09:13:15.779Z,29.33
2023-01-12T09:15:48.175Z,26.93
2023-01-12T09:18:20.338Z,31.27
2023-01-12T09:20:47.570Z,34.60
2023-01-12T09:23:14.669Z,42.33
2023-01-12T09:25:41.789Z,38.55
2023-01-12T09:28:08.914Z,21.30
2023-01-12T09:30:36.017Z,9.23
2023-01-12T09:33:03.127Z,17.20
2023-01-12T09:35:31.099Z,21.95
2023-01-12T09:37:58.229Z,26.50
2023-01-12T09:40:25.344Z,20.92
2023-01-12T09:43:11.041Z,18.20
2023-01-12T09:45:57.010Z,12.15
2023-01-12T09:48:25.266Z,6.82
2023-01-12T09:50:55.127Z,4.10
2023-01-12T09:53:23.969Z,2.10
2023-01-12T09:56:11.383Z,2.67
2023-01-12T09:58:53.521Z,3.25
2023-01-12T10:01:29.364Z,2.03
2023-01-12T10:03:57.061Z,1.70
2023-01-12T10:06:24.209Z,1.45
2023-01-12T10:09:20.598Z,2.05
2023-01-12T10:11:53.478Z,1.70
2023-01-12T10:14:20.559Z,2.28
2023-01-12T10:16:47.726Z,1.92
2023-01-12T10:19:27.063Z,1.25
2023-01-12T10:21:54.334Z,2.10
2023-01-12T10:24:22.408Z,2.28
2023-01-12T10:26:51.775Z,1.90
2023-01-12T10:29:21.021Z,1.70
2023-01-12T10:31:48.238Z,2.00
2023-01-12T10:34:15.488Z,1.75
2023-01-12T10:36:42.649Z,2.00
2023-01-12T10:39:25.936Z,1.60
2023-01-12T10:42:08.875Z,2.08
2023-01-12T10:44:36.041Z,1.90
2023-01-12T10:47:09.619Z,2.28
2023-01-12T10:49:38.258Z,1.70
2023-01-12T10:52:14.648Z,1.42
2023-01-12T10:54:41.819Z,2.20
2023-01-12T10:57:22.393Z,1.58
2023-01-12T11:00:07.604Z,1.65
2023-01-12T11:02:44.338Z,1.55
2023-01-12T11:05:30.565Z,1.35
2023-01-12T11:07:57.897Z,1.27
2023-01-12T11:10:29.366Z,1.40
2023-01-12T11:12:58.944Z,1.33
2023-01-12T11:15:26.374Z,2.00
2023-01-12T11:17:59.312Z,2.72
2023-01-12T11:20:41.790Z,2.42
2023-01-12T11:23:13.346Z,2.53
2023-01-12T11:25:41.133Z,1.50
2023-01-12T11:28:11.429Z,1.52
2023-01-12T11:30:41.242Z,2.17
2023-01-12T11:33:16.025Z,1.70
2023-01-12T11:35:54.219Z,1.40
2023-01-12T11:38:28.633Z,1.60
2023-01-12T11:40:56.869Z,1.65
2023-01-12T11:43:42.657Z,2.05
2023-01-12T11:46:29.119Z,1.90
2023-01-12T11:49:04.296Z,3.40
2023-01-12T11:51:31.464Z,2.08
2023-01-12T11:53:58.570Z,1.77
2023-01-12T11:56:29.778Z,1.88
2023-01-12T11:58:59.112Z,2.17
2023-01-12T12:01:35.492Z,2.13
2023-01-12T12:04:04.218Z,1.77
2023-01-12T12:06:34.863Z,1.30
2023-01-12T12:09:20.836Z,1.35
2023-01-12T12:12:01.421Z,4.82
2023-01-12T12:14:55.001Z,1.90
2023-01-12T12:17:34.098Z,2.58
2023-01-12T12:20:20.336Z,2.30
2023-01-12T12:23:06.278Z,2.70
2023-01-12T12:25:33.462Z,1.70
2023-01-12T12:28:00.544Z,1.70
2023-01-12T12:30:30.704Z,2.00
2023-01-12T12:33:06.755Z,2.58
2023-01-12T12:35:41.481Z,2.10
2023-01-12T12:38:26.131Z,5.00
2023-01-12T12:41:17.842Z,12.10
2023-01-12T12:44:03.643Z,3.53
2023-01-12T12:46:30.756Z,1.35
2023-01-12T12:49:04.844Z,2.10
2023-01-12T12:51:32.679Z,1.52
2023-01-12T12:54:00.995Z,2.72
2023-01-12T12:56:28.420Z,1.30
2023-01-12T12:58:56.171Z,3.35
2023-01-12T13:01:27.300Z,2.08
2023-01-12T13:03:54.966Z,1.50
2023-01-12T13:06:31.345Z,2.20
2023-01-12T13:09:02.267Z,1.60
2023-01-12T13:11:47.864Z,2.63
2023-01-12T13:14:27.021Z,2.10
2023-01-12T13:16:54.983Z,4.70
2023-01-12T13:19:41.006Z,3.08
2023-01-12T13:22:27.857Z,1.75
2023-01-12T13:24:58.579Z,2.00
2023-01-12T13:27:44.469Z,1.88
2023-01-12T13:30:23.888Z,1.60
2023-01-12T13:32:52.040Z,1.70
2023-01-12T13:35:34.465Z,1.60
2023-01-12T13:38:20.163Z,1.50
2023-01-12T13:40:56.002Z,1.90
2023-01-12T13:43:27.230Z,1.40
2023-01-12T13:45:54.392Z,1.40
2023-01-12T13:48:21.554Z,1.83
2023-01-12T13:50:49.591Z,1.90
2023-01-12T13:53:24.311Z,2.00
2023-01-12T13:55:57.584Z,4.53
2023-01-12T13:58:24.792Z,5.60
2023-01-12T14:01:01.570Z,5.70
2023-01-12T14:03:28.732Z,5.55
2023-01-12T14:06:00.174Z,5.15
2023-01-12T14:08:34.413Z,3.35
2023-01-12T14:11:24.164Z,3.63
2023-01-12T14:13:51.334Z,3.90
2023-01-12T14:16:37.225Z,3.83
2023-01-12T14:19:19.319Z,3.15
2023-01-12T14:21:48.599Z,2.65
2023-01-12T14:24:16.360Z,4.65
2023-01-12T14:26:43.629Z,4.15
2023-01-12T14:29:13.480Z,3.15
2023-01-12T14:31:44.605Z,2.92
2023-01-12T14:34:24.092Z,3.45
2023-01-12T14:36:51.243Z,4.35
2023-01-12T14:39:20.339Z,4.60
2023-01-12T14:42:08.133Z,4.32
2023-01-12T14:44:55.550Z,3.65
2023-01-12T14:47:28.322Z,2.95
2023-01-12T14:49:55.436Z,2.75
2023-01-12T14:52:22.877Z,2.00
2023-01-12T14:54:50.085Z,1.83
2023-01-12T14:57:20.770Z,15.25
2023-01-12T14:59:48.344Z,6.50
2023-01-12T15:02:15.494Z,2.20
2023-01-12T15:05:02.525Z,1.98
2023-01-12T15:07:52.931Z,21.75
2023-01-12T15:10:20.042Z,18.15
2023-01-12T15:12:54.416Z,36.67
2023-01-12T15:15:24.542Z,54.58
2023-01-12T15:18:11.071Z,46.85
2023-01-12T15:20:58.202Z,43.80
2023-01-12T15:23:46.124Z,42.35
2023-01-12T15:26:13.304Z,28.02
2023-01-12T15:28:40.997Z,8.70
2023-01-12T15:31:16.083Z,4.38
2023-01-12T15:33:43.222Z,3.35
2023-01-12T15:36:10.319Z,3.03
2023-01-12T15:38:37.463Z,3.42
2023-01-12T15:41:04.994Z,3.90
2023-01-12T15:43:32.146Z,3.60
2023-01-12T15:45:59.475Z,4.43
2023-01-12T15:48:26.681Z,20.90
2023-01-12T15:50:53.788Z,23.35
2023-01-12T15:53:21.837Z,8.85
2023-01-12T15:55:49.004Z,6.05
2023-01-12T15:58:16.954Z,4.97
2023-01-12T16:00:44.693Z,5.43
2023-01-12T16:03:32.241Z,4.90
2023-01-12T16:05:59.572Z,38.45
2023-01-12T16:08:26.690Z,16.73
2023-01-12T16:11:09.315Z,28.20
2023-01-12T16:13:36.453Z,87.18
2023-01-12T16:16:03.596Z,74.97
2023-01-12T16:18:31.232Z,86.45
2023-01-12T16:20:58.916Z,62.45
2023-01-12T16:23:26.062Z,69.40
2023-01-12T16:25:56.594Z,67.05
2023-01-12T16:28:23.720Z,70.03
2023-01-12T16:30:51.291Z,67.50
2023-01-12T16:33:18.464Z,82.27
2023-01-12T16:35:45.892Z,81.47
2023-01-12T16:38:16.069Z,67.47
2023-01-12T16:40:43.432Z,61.60
2023-01-12T16:43:10.785Z,60.90
2023-01-12T16:45:41.700Z,71.03
2023-01-12T16:48:08.895Z,101.50
2023-01-12T16:50:39.505Z,85.70
2023-01-12T16:53:06.598Z,84.27
2023-01-12T16:55:34.301Z,94.60
2023-01-12T16:58:02.075Z,106.17
2023-01-12T17:00:29.215Z,86.37
2023-01-12T17:02:56.566Z,114.90
2023-01-12T17:05:23.738Z,77.67
2023-01-12T17:07:50.985Z,110.90
2023-01-12T17:10:19.306Z,86.00
2023-01-12T17:12:54.481Z,95.40
2023-01-12T17:15:26.873Z,65.87
2023-01-12T17:17:55.360Z,62.70
2023-01-12T17:20:22.608Z,76.60
2023-01-12T17:22:49.928Z,73.40
2023-01-12T17:25:17.156Z,76.90
2023-01-12T17:27:44.340Z,108.70
2023-01-12T17:30:11.781Z,156.13
2023-01-12T17:32:39.697Z,151.50
2023-01-12T17:35:09.497Z,80.37
2023-01-12T17:37:36.905Z,64.37
2023-01-12T17:40:04.374Z,49.37
2023-01-12T17:42:50.182Z,70.57
2023-01-12T17:45:17.553Z,64.30
2023-01-12T17:47:44.690Z,82.40
2023-01-12T17:50:13.392Z,100.27
2023-01-12T17:52:40.626Z,140.57
2023-01-12T17:55:07.865Z,121.80
2023-01-12T17:57:36.706Z,108.80
2023-01-12T18:00:08.960Z,113.37
2023-01-12T18:02:36.290Z,119.13
2023-01-12T18:05:03.401Z,121.40
2023-01-12T18:07:31.902Z,111.33
2023-01-12T18:09:59.060Z,112.57
2023-01-12T18:12:27.468Z,111.60
2023-01-12T18:14:58.993Z,111.50
2023-01-12T18:17:26.161Z,109.17
2023-01-12T18:19:53.299Z,139.60
2023-01-12T18:22:20.524Z,133.93
2023-01-12T18:24:47.649Z,124.70
2023-01-12T18:27:14.779Z,112.07
2023-01-12T18:29:41.946Z,120.37
2023-01-12T18:32:09.171Z,123.57
2023-01-12T18:34:38.224Z,143.17
2023-01-12T18:37:05.343Z,146.23
2023-01-12T18:39:32.514Z,153.20
2023-01-12T18:42:18.578Z,166.07
2023-01-12T18:44:46.612Z,166.63
2023-01-12T18:47:32.894Z,151.47
2023-01-12T18:50:19.948Z,148.27
2023-01-12T18:53:13.209Z,139.60
2023-01-12T18:55:41.314Z,140.50
2023-01-12T18:58:08.583Z,143.23
2023-01-12T19:00:35.710Z,134.33
2023-01-12T19:03:21.440Z,148.17
2023-01-12T19:05:51.359Z,135.10
2023-01-12T19:08:37.051Z,136.87
2023-01-12T19:11:11.080Z,142.90
2023-01-12T19:13:57.047Z,139.33
2023-01-12T19:16:42.908Z,139.20
2023-01-12T19:19:10.548Z,132.07
2023-01-12T19:22:12.997Z,128.03
2023-01-12T19:24:58.603Z,125.47
2023-01-12T19:27:58.348Z,141.17
2023-01-12T19:30:25.438Z,150.37
2023-01-12T19:32:53.184Z,151.03
2023-01-12T19:35:20.318Z,141.23
2023-01-12T19:37:48.081Z,150.10
2023-01-12T19:40:35.907Z,163.87
2023-01-12T19:43:14.004Z,180.23
2023-01-12T19:45:41.912Z,311.90
2023-01-12T19:48:09.130Z,420.77
2023-01-12T19:50:36.478Z,472.80
2023-01-12T19:53:03.803Z,297.50
2023-01-12T19:55:31.338Z,236.63
2023-01-12T19:57:58.602Z,177.07
2023-01-12T20:00:25.916Z,212.63
2023-01-12T20:02:53.373Z,200.10
2023-01-12T20:05:23.652Z,171.20
2023-01-12T20:07:51.654Z,159.53
2023-01-12T20:10:19.196Z,173.67
2023-01-12T20:12:46.306Z,173.97
2023-01-12T20:15:13.516Z,165.70
2023-01-12T20:17:41.052Z,173.77
2023-01-12T20:20:08.842Z,178.60
2023-01-12T20:22:36.328Z,159.30
2023-01-12T20:25:04.044Z,159.87
2023-01-12T20:27:32.768Z,148.73
2023-01-12T20:30:01.312Z,224.00
2023-01-12T20:32:32.340Z,159.77
2023-01-12T20:34:59.714Z,236.07
2023-01-12T20:37:26.865Z,242.63
2023-01-12T20:39:55.871Z,249.20
2023-01-12T20:42:22.966Z,237.03
2023-01-12T20:44:50.163Z,190.93
2023-01-12T20:47:19.093Z,200.43
2023-01-12T20:49:49.281Z,232.23
2023-01-12T20:52:16.412Z,245.17
2023-01-12T20:54:45.056Z,260.43
2023-01-12T20:57:13.002Z,253.83
2023-01-12T20:59:40.179Z,247.70
2023-01-12T21:02:08.046Z,258.57
2023-01-12T21:04:35.257Z,252.73
2023-01-12T21:07:02.479Z,244.77
2023-01-12T21:09:29.605Z,217.07
2023-01-12T21:11:57.262Z,210.67
2023-01-12T21:14:24.575Z,110.87
2023-01-12T21:16:51.695Z,21.53
2023-01-12T21:19:19.113Z,44.97
2023-01-12T21:21:46.302Z,46.33
2023-01-12T21:24:13.413Z,31.57
2023-01-12T21:26:40.545Z,16.17
2023-01-12T21:29:07.724Z,11.00
2023-01-12T21:31:34.958Z,8.20
2023-01-12T21:34:02.186Z,7.07
2023-01-12T21:36:29.329Z,5.70
2023-01-12T21:38:56.476Z,6.45
2023-01-12T21:41:24.889Z,4.03
2023-01-12T21:43:52.200Z,4.75
2023-01-12T21:46:19.861Z,4.55
2023-01-12T21:48:47.002Z,2.58
2023-01-12T21:51:14.986Z,2.50
2023-01-12T21:53:42.158Z,2.58
2023-01-12T21:56:10.714Z,2.80
2023-01-12T21:58:37.886Z,2.90
2023-01-12T22:01:09.136Z,3.55
2023-01-12T22:03:36.335Z,4.75
2023-01-12T22:06:07.524Z,5.25
2023-01-12T22:08:37.893Z,4.68
2023-01-12T22:11:14.695Z,4.00
2023-01-12T22:13:41.871Z,4.30
2023-01-12T22:16:09.486Z,3.95
2023-01-12T22:18:36.979Z,5.80
2023-01-12T22:21:04.861Z,18.15
2023-01-12T22:23:32.004Z,16.33
2023-01-12T22:26:02.721Z,7.88
2023-01-12T22:28:29.885Z,5.22
2023-01-12T22:30:56.971Z,6.70
2023-01-12T22:33:24.266Z,5.90
2023-01-12T22:35:51.351Z,6.95
2023-01-12T22:38:18.474Z,7.40
2023-01-12T22:40:45.596Z,9.35
2023-01-12T22:43:29.317Z,7.30
2023-01-12T22:45:57.975Z,6.70
2023-01-12T22:48:26.014Z,8.30
2023-01-12T22:50:56.047Z,8.93
2023-01-12T22:53:24.121Z,12.10
2023-01-12T22:55:51.633Z,10.60
2023-01-12T22:58:18.762Z,11.38
2023-01-12T23:00:45.941Z,12.80
2023-01-12T23:03:13.541Z,15.73
2023-01-12T23:05:45.912Z,15.73
2023-01-12T23:08:13.781Z,13.82
2023-01-12T23:10:41.238Z,11.50
2023-01-12T23:13:11.688Z,10.95
2023-01-12T23:15:39.531Z,11.88
2023-01-12T23:18:07.252Z,11.15
2023-01-12T23:20:35.814Z,10.65
2023-01-12T23:23:05.961Z,11.65
2023-01-12T23:25:33.420Z,12.33
2023-01-12T23:28:00.766Z,10.20
2023-01-12T23:30:31.006Z,10.82
2023-01-12T23:32:59.077Z,11.00
2023-01-12T23:35:26.671Z,10.30
2023-01-12T23:37:54.005Z,10.88
2023-01-12T23:40:21.313Z,11.17
2023-01-12T23:42:48.535Z,11.35
2023-01-12T23:45:15.716Z,13.30
2023-01-12T23:47:42.920Z,13.53
2023-01-12T23:50:11.183Z,14.23
2023-01-12T23:52:38.348Z,13.43
2023-01-12T23:55:05.754Z,12.70
2023-01-12T23:57:33.757Z,12.53
